This demonstration page uses our WeatherBlox Daily Observations layout. Learn more.

39.92423, -83.80882

Hourly Observations for December 12, 2019

Temp ( °F °C ) Dew Point ( °F °C ) Humidity (%) Winds ( mph kmh ) Pressure ( in mb ) Visibility ( mi km ) Precip ( " mm )
12:56 am 00:56 Clear 16 -8.9 14 -10 92 92 E 7 11 30.59 1036 10 16.0934 0 0
1:56 am 01:56 Clear 17 -8.3 16 -8.9 95 95 E 8 13 30.59 1036 10 16.0934 0 0
2:56 am 02:56 Clear 19 -7.2 17 -8.3 92 92 ESE 9 15 30.6 1036 10 16.0934 0 0
3:56 am 03:56 Clear 20 -6.7 17 -8.3 89 89 ESE 9 15 30.6 1036 10 16.0934 0 0
4:56 am 04:56 Clear 20 -6.7 18 -7.8 92 92 ESE 9 15 30.6 1036 10 16.0934 0 0
5:56 am 05:56 Clear 21 -6.1 19 -7.2 92 92 SE 10 17 30.6 1036 10 16.0934 0 0
6:56 am 06:56 Clear 21 -6.1 19 -7.2 92 92 ESE 10 17 30.59 1036 10 16.0934 0 0
7:56 am 07:56 Sunny 21 -6.1 19 -7.2 92 92 SE 10 17 30.59 1036 10 16.0934 0 0
8:56 am 08:56 Sunny 23 -5 20 -6.7 88 88 SE 8 13 30.6 1036 10 16.0934 0 0
9:56 am 09:56 Sunny 27 -2.8 23 -5 85 85 SSE 10 17 30.59 1036 10 16.0934 0 0
10:56 am 10:56 Sunny 31 -0.6 25 -3.9 79 79 SSE 9 15 30.57 1035 10 16.0934 0 0
11:56 am 11:56 Sunny 34 1.1 27 -2.8 76 76 S 10 17 30.54 1034 10 16.0934 0 0
12:56 pm 12:56 Sunny 37 2.8 29 -1.7 73 73 SSE 10 17 30.49 1033 10 16.0934 0 0
1:56 pm 13:56 Sunny 40 4.4 28 -2.2 63 63 S 9 15 30.46 1032 10 16.0934 0 0
2:56 pm 14:56 Sunny 40 4.4 28 -2.2 63 63 SSE 12 19 30.42 1030 10 16.0934 0 0
3:56 pm 15:56 Sunny 38 3.3 28 -2.2 68 68 SSE 10 17 30.4 1029 10 16.0934 0 0
4:56 pm 16:56 Sunny 36 2.2 27 -2.8 70 70 SE 13 20 30.37 1029 10 16.0934 0 0
5:56 pm 17:56 Clear 35 1.7 27 -2.8 72 72 SE 10 17 30.34 1028 10 16.0934 0 0
6:56 pm 18:56 Clear 35 1.7 27 -2.8 72 72 SE 13 20 30.32 1027 10 16.0934 0 0
7:56 pm 19:56 Clear 34 1.1 27 -2.8 76 76 SE 10 17 30.32 1027 10 16.0934 0 0
8:56 pm 20:56 Clear 33 0.6 28 -2.2 82 82 SE 10 17 30.3 1026 10 16.0934 0 0
9:56 pm 21:56 Clear 33 0.6 27 -2.8 78 78 SSE 7 11 30.28 1026 10 16.0934 0 0
10:56 pm 22:56 Clear 32 0 27 -2.8 82 82 SE 9 15 30.25 1024 10 16.0934 0 0
11:56 pm 23:56 Clear 33 0.6 26 -3.3 75 75 SSE 12 19 30.22 1023 10 16.0934 0 0

Powered by AerisWeather